sensor_id;sensor_type;location;lat;lon;timestamp;temperature;humidity
2639;DHT22;1329;51.384;7.122;2023-04-03T00:01:04;3.60;99.90
2639;DHT22;1329;51.384;7.122;2023-04-03T00:03:34;3.60;99.90
2639;DHT22;1329;51.384;7.122;2023-04-03T00:06:03;3.60;99.90
2639;DHT22;1329;51.384;7.122;2023-04-03T00:08:32;3.60;99.90
2639;DHT22;1329;51.384;7.122;2023-04-03T00:11:01;3.50;99.90
2639;DHT22;1329;51.384;7.122;2023-04-03T00:13:29;3.50;99.90
2639;DHT22;1329;51.384;7.122;2023-04-03T00:15:57;3.50;99.90
2639;DHT22;1329;51.384;7.122;2023-04-03T00:18:25;3.50;99.90
2639;DHT22;1329;51.384;7.122;2023-04-03T00:20:52;3.50;99.90
2639;DHT22;1329;51.384;7.122;2023-04-03T00:23:23;3.50;99.90
2639;DHT22;1329;51.384;7.122;2023-04-03T00:25:56;3.50;99.90
2639;DHT22;1329;51.384;7.122;2023-04-03T00:28:32;3.50;99.90
2639;DHT22;1329;51.384;7.122;2023-04-03T00:31:00;3.40;99.90
2639;DHT22;1329;51.384;7.122;2023-04-03T00:33:27;3.40;99.90
2639;DHT22;1329;51.384;7.122;2023-04-03T00:35:57;3.30;99.90
2639;DHT22;1329;51.384;7.122;2023-04-03T00:38:24;3.30;99.90
2639;DHT22;1329;51.384;7.122;2023-04-03T00:40:52;3.30;99.90
2639;DHT22;1329;51.384;7.122;2023-04-03T00:43:22;3.40;99.90
2639;DHT22;1329;51.384;7.122;2023-04-03T00:45:59;3.30;99.90
2639;DHT22;1329;51.384;7.122;2023-04-03T00:48:31;3.30;99.90
2639;DHT22;1329;51.384;7.122;2023-04-03T00:51:10;3.30;99.90
2639;DHT22;1329;51.384;7.122;2023-04-03T00:53:43;3.30;99.90
2639;DHT22;1329;51.384;7.122;2023-04-03T00:56:19;3.30;99.90
2639;DHT22;1329;51.384;7.122;2023-04-03T00:58:53;3.30;99.90
2639;DHT22;1329;51.384;7.122;2023-04-03T01:01:33;3.30;99.90
2639;DHT22;1329;51.384;7.122;2023-04-03T01:06:32;3.20;99.90
2639;DHT22;1329;51.384;7.122;2023-04-03T01:09:01;3.30;99.90
2639;DHT22;1329;51.384;7.122;2023-04-03T01:11:28;3.20;99.90
2639;DHT22;1329;51.384;7.122;2023-04-03T01:13:55;3.20;99.90
2639;DHT22;1329;51.384;7.122;2023-04-03T01:16:22;3.20;99.90
2639;DHT22;1329;51.384;7.122;2023-04-03T01:18:50;3.20;99.90
2639;DHT22;1329;51.384;7.122;2023-04-03T01:21:42;3.20;99.90
2639;DHT22;1329;51.384;7.122;2023-04-03T01:24:32;3.10;99.90
2639;DHT22;1329;51.384;7.122;2023-04-03T01:27:03;3.10;99.90
2639;DHT22;1329;51.384;7.122;2023-04-03T01:29:31;3.10;99.90
2639;DHT22;1329;51.384;7.122;2023-04-03T01:32:00;3.10;99.90
2639;DHT22;1329;51.384;7.122;2023-04-03T01:34:29;3.10;99.90
2639;DHT22;1329;51.384;7.122;2023-04-03T01:36:56;3.10;99.90
2639;DHT22;1329;51.384;7.122;2023-04-03T01:39:23;3.00;99.90
2639;DHT22;1329;51.384;7.122;2023-04-03T01:41:50;3.00;99.90
2639;DHT22;1329;51.384;7.122;2023-04-03T01:44:17;3.00;99.90
2639;DHT22;1329;51.384;7.122;2023-04-03T01:46:44;2.90;99.90
2639;DHT22;1329;51.384;7.122;2023-04-03T01:49:13;3.00;99.90
2639;DHT22;1329;51.384;7.122;2023-04-03T01:51:40;2.90;99.90
2639;DHT22;1329;51.384;7.122;2023-04-03T01:54:07;2.90;99.90
2639;DHT22;1329;51.384;7.122;2023-04-03T01:56:33;2.90;99.90
2639;DHT22;1329;51.384;7.122;2023-04-03T01:59:01;2.90;99.90
2639;DHT22;1329;51.384;7.122;2023-04-03T02:01:28;2.90;99.90
2639;DHT22;1329;51.384;7.122;2023-04-03T02:03:54;2.90;99.90
2639;DHT22;1329;51.384;7.122;2023-04-03T02:06:23;2.90;99.90
2639;DHT22;1329;51.384;7.122;2023-04-03T02:08:50;2.90;99.90
2639;DHT22;1329;51.384;7.122;2023-04-03T02:11:17;2.90;99.90
2639;DHT22;1329;51.384;7.122;2023-04-03T02:13:45;2.90;99.90
2639;DHT22;1329;51.384;7.122;2023-04-03T02:16:12;2.90;99.90
2639;DHT22;1329;51.384;7.122;2023-04-03T02:18:39;2.80;99.90
2639;DHT22;1329;51.384;7.122;2023-04-03T02:21:06;2.80;99.90
2639;DHT22;1329;51.384;7.122;2023-04-03T02:23:34;2.80;99.90
2639;DHT22;1329;51.384;7.122;2023-04-03T02:26:04;2.80;99.90
2639;DHT22;1329;51.384;7.122;2023-04-03T02:28:33;2.80;99.90
2639;DHT22;1329;51.384;7.122;2023-04-03T02:31:01;2.80;99.90
2639;DHT22;1329;51.384;7.122;2023-04-03T02:33:28;2.80;99.90
2639;DHT22;1329;51.384;7.122;2023-04-03T02:35:56;2.80;99.90
2639;DHT22;1329;51.384;7.122;2023-04-03T02:38:23;2.80;99.90
2639;DHT22;1329;51.384;7.122;2023-04-03T02:40:52;2.80;99.90
2639;DHT22;1329;51.384;7.122;2023-04-03T02:43:19;2.80;99.90
2639;DHT22;1329;51.384;7.122;2023-04-03T02:45:46;2.80;99.90
2639;DHT22;1329;51.384;7.122;2023-04-03T02:48:13;2.80;99.90
2639;DHT22;1329;51.384;7.122;2023-04-03T02:50:42;2.80;99.90
2639;DHT22;1329;51.384;7.122;2023-04-03T02:53:09;2.80;99.90
2639;DHT22;1329;51.384;7.122;2023-04-03T02:55:44;2.80;99.90
2639;DHT22;1329;51.384;7.122;2023-04-03T02:58:13;2.80;99.90
2639;DHT22;1329;51.384;7.122;2023-04-03T03:00:44;2.80;99.90
2639;DHT22;1329;51.384;7.122;2023-04-03T03:03:11;2.70;99.90
2639;DHT22;1329;51.384;7.122;2023-04-03T03:05:40;2.80;99.90
2639;DHT22;1329;51.384;7.122;2023-04-03T03:08:08;2.80;99.90
2639;DHT22;1329;51.384;7.122;2023-04-03T03:10:35;2.80;99.90
2639;DHT22;1329;51.384;7.122;2023-04-03T03:13:06;2.70;99.90
2639;DHT22;1329;51.384;7.122;2023-04-03T03:15:35;2.80;99.90
2639;DHT22;1329;51.384;7.122;2023-04-03T03:18:09;2.70;99.90
2639;DHT22;1329;51.384;7.122;2023-04-03T03:20:36;2.80;99.90
2639;DHT22;1329;51.384;7.122;2023-04-03T03:23:04;2.70;99.90
2639;DHT22;1329;51.384;7.122;2023-04-03T03:25:31;2.70;99.90
2639;DHT22;1329;51.384;7.122;2023-04-03T03:27:59;2.70;99.90
2639;DHT22;1329;51.384;7.122;2023-04-03T03:30:28;2.70;99.90
2639;DHT22;1329;51.384;7.122;2023-04-03T03:33:03;2.70;99.90
2639;DHT22;1329;51.384;7.122;2023-04-03T03:35:31;2.70;99.90
2639;DHT22;1329;51.384;7.122;2023-04-03T03:37:57;2.70;99.90
2639;DHT22;1329;51.384;7.122;2023-04-03T03:40:24;2.70;99.90
2639;DHT22;1329;51.384;7.122;2023-04-03T03:42:51;2.70;99.90
2639;DHT22;1329;51.384;7.122;2023-04-03T03:45:18;2.70;99.90
2639;DHT22;1329;51.384;7.122;2023-04-03T03:47:45;2.70;99.90
2639;DHT22;1329;51.384;7.122;2023-04-03T03:50:14;2.70;99.90
2639;DHT22;1329;51.384;7.122;2023-04-03T03:52:41;2.70;99.90
2639;DHT22;1329;51.384;7.122;2023-04-03T03:55:08;2.70;99.90
2639;DHT22;1329;51.384;7.122;2023-04-03T03:57:35;2.70;99.90
2639;DHT22;1329;51.384;7.122;2023-04-03T04:00:02;2.70;99.90
2639;DHT22;1329;51.384;7.122;2023-04-03T04:02:30;2.70;99.90
2639;DHT22;1329;51.384;7.122;2023-04-03T04:04:57;2.70;99.90
2639;DHT22;1329;51.384;7.122;2023-04-03T04:07:25;2.70;99.90
2639;DHT22;1329;51.384;7.122;2023-04-03T04:09:53;2.70;99.90
2639;DHT22;1329;51.384;7.122;2023-04-03T04:12:21;2.70;99.90
2639;DHT22;1329;51.384;7.122;2023-04-03T04:14:48;2.70;99.90
2639;DHT22;1329;51.384;7.122;2023-04-03T04:17:15;2.70;99.90
2639;DHT22;1329;51.384;7.122;2023-04-03T04:19:42;2.70;99.90
2639;DHT22;1329;51.384;7.122;2023-04-03T04:22:09;2.70;99.90
2639;DHT22;1329;51.384;7.122;2023-04-03T04:24:37;2.70;99.90
2639;DHT22;1329;51.384;7.122;2023-04-03T04:27:04;2.70;99.90
2639;DHT22;1329;51.384;7.122;2023-04-03T04:29:31;2.70;99.90
2639;DHT22;1329;51.384;7.122;2023-04-03T04:32:03;2.70;99.90
2639;DHT22;1329;51.384;7.122;2023-04-03T04:34:36;2.70;99.90
2639;DHT22;1329;51.384;7.122;2023-04-03T04:37:03;2.70;99.90
2639;DHT22;1329;51.384;7.122;2023-04-03T04:39:29;2.60;99.90
2639;DHT22;1329;51.384;7.122;2023-04-03T04:41:58;2.70;99.90
2639;DHT22;1329;51.384;7.122;2023-04-03T04:44:25;2.70;99.90
2639;DHT22;1329;51.384;7.122;2023-04-03T04:46:51;2.60;99.90
2639;DHT22;1329;51.384;7.122;2023-04-03T04:49:19;2.60;99.90
2639;DHT22;1329;51.384;7.122;2023-04-03T04:51:47;2.60;99.90
2639;DHT22;1329;51.384;7.122;2023-04-03T04:54:14;2.60;99.90
2639;DHT22;1329;51.384;7.122;2023-04-03T04:56:44;2.60;99.90
2639;DHT22;1329;51.384;7.122;2023-04-03T04:59:15;2.60;99.90
2639;DHT22;1329;51.384;7.122;2023-04-03T05:01:42;2.60;99.90
2639;DHT22;1329;51.384;7.122;2023-04-03T05:04:10;2.60;99.90
2639;DHT22;1329;51.384;7.122;2023-04-03T05:06:47;2.50;99.90
2639;DHT22;1329;51.384;7.122;2023-04-03T05:09:15;2.50;99.90
2639;DHT22;1329;51.384;7.122;2023-04-03T05:11:46;2.50;99.90
2639;DHT22;1329;51.384;7.122;2023-04-03T05:14:16;2.50;99.90
2639;DHT22;1329;51.384;7.122;2023-04-03T05:16:45;2.50;99.90
2639;DHT22;1329;51.384;7.122;2023-04-03T05:19:19;2.50;99.90
2639;DHT22;1329;51.384;7.122;2023-04-03T05:21:46;2.50;99.90
2639;DHT22;1329;51.384;7.122;2023-04-03T05:24:14;2.50;99.90
2639;DHT22;1329;51.384;7.122;2023-04-03T05:26:43;2.50;99.90
2639;DHT22;1329;51.384;7.122;2023-04-03T05:29:11;2.50;99.90
2639;DHT22;1329;51.384;7.122;2023-04-03T05:31:44;2.40;99.90
2639;DHT22;1329;51.384;7.122;2023-04-03T05:34:12;2.40;99.90
2639;DHT22;1329;51.384;7.122;2023-04-03T05:36:40;2.40;99.90
2639;DHT22;1329;51.384;7.122;2023-04-03T05:39:08;2.40;99.90
2639;DHT22;1329;51.384;7.122;2023-04-03T05:41:36;2.40;99.90
2639;DHT22;1329;51.384;7.122;2023-04-03T05:44:03;2.50;99.90
2639;DHT22;1329;51.384;7.122;2023-04-03T05:46:31;2.50;99.90
2639;DHT22;1329;51.384;7.122;2023-04-03T05:49:02;2.50;99.90
2639;DHT22;1329;51.384;7.122;2023-04-03T05:51:36;2.50;99.90
2639;DHT22;1329;51.384;7.122;2023-04-03T05:54:09;2.50;99.90
2639;DHT22;1329;51.384;7.122;2023-04-03T05:56:42;2.50;99.90
2639;DHT22;1329;51.384;7.122;2023-04-03T05:59:14;2.60;99.90
2639;DHT22;1329;51.384;7.122;2023-04-03T06:01:44;2.60;99.90
2639;DHT22;1329;51.384;7.122;2023-04-03T06:04:13;2.60;99.90
2639;DHT22;1329;51.384;7.122;2023-04-03T06:06:46;2.70;99.90
2639;DHT22;1329;51.384;7.122;2023-04-03T06:09:14;2.70;99.90
2639;DHT22;1329;51.384;7.122;2023-04-03T06:11:47;2.70;99.90
2639;DHT22;1329;51.384;7.122;2023-04-03T06:14:18;2.70;99.90
2639;DHT22;1329;51.384;7.122;2023-04-03T06:16:45;2.70;99.90
2639;DHT22;1329;51.384;7.122;2023-04-03T06:19:14;2.80;99.90
2639;DHT22;1329;51.384;7.122;2023-04-03T06:21:41;2.80;99.90
2639;DHT22;1329;51.384;7.122;2023-04-03T06:24:09;2.80;99.90
2639;DHT22;1329;51.384;7.122;2023-04-03T06:26:37;2.80;99.90
2639;DHT22;1329;51.384;7.122;2023-04-03T06:29:04;2.80;99.90
2639;DHT22;1329;51.384;7.122;2023-04-03T06:31:31;2.80;99.90
2639;DHT22;1329;51.384;7.122;2023-04-03T06:34:03;2.90;99.90
2639;DHT22;1329;51.384;7.122;2023-04-03T06:36:32;2.90;99.90
2639;DHT22;1329;51.384;7.122;2023-04-03T06:39:00;2.90;99.90
2639;DHT22;1329;51.384;7.122;2023-04-03T06:41:27;2.90;99.90
2639;DHT22;1329;51.384;7.122;2023-04-03T06:43:56;3.00;99.90
2639;DHT22;1329;51.384;7.122;2023-04-03T06:46:24;3.00;99.90
2639;DHT22;1329;51.384;7.122;2023-04-03T06:48:52;3.00;99.90
2639;DHT22;1329;51.384;7.122;2023-04-03T06:51:22;3.00;99.90
2639;DHT22;1329;51.384;7.122;2023-04-03T06:53:52;3.00;99.90
2639;DHT22;1329;51.384;7.122;2023-04-03T06:56:23;3.10;99.90
2639;DHT22;1329;51.384;7.122;2023-04-03T06:59:00;3.10;99.90
2639;DHT22;1329;51.384;7.122;2023-04-03T07:01:32;3.10;99.90
2639;DHT22;1329;51.384;7.122;2023-04-03T07:03:59;3.10;99.90
2639;DHT22;1329;51.384;7.122;2023-04-03T07:06:27;3.20;99.90
2639;DHT22;1329;51.384;7.122;2023-04-03T07:09:07;3.20;99.90
2639;DHT22;1329;51.384;7.122;2023-04-03T07:11:36;3.20;99.90
2639;DHT22;1329;51.384;7.122;2023-04-03T07:14:03;3.30;99.90
2639;DHT22;1329;51.384;7.122;2023-04-03T07:16:32;3.30;99.90
2639;DHT22;1329;51.384;7.122;2023-04-03T07:19:03;3.30;99.90
2639;DHT22;1329;51.384;7.122;2023-04-03T07:21:30;3.30;99.90
2639;DHT22;1329;51.384;7.122;2023-04-03T07:24:04;3.40;99.90
2639;DHT22;1329;51.384;7.122;2023-04-03T07:26:32;3.40;99.90
2639;DHT22;1329;51.384;7.122;2023-04-03T07:29:00;3.40;99.90
2639;DHT22;1329;51.384;7.122;2023-04-03T07:31:28;3.50;99.90
2639;DHT22;1329;51.384;7.122;2023-04-03T07:33:55;3.50;99.90
2639;DHT22;1329;51.384;7.122;2023-04-03T07:36:22;3.50;99.90
2639;DHT22;1329;51.384;7.122;2023-04-03T07:38:49;3.60;99.90
2639;DHT22;1329;51.384;7.122;2023-04-03T07:41:19;3.60;99.90
2639;DHT22;1329;51.384;7.122;2023-04-03T07:43:48;3.60;99.90
2639;DHT22;1329;51.384;7.122;2023-04-03T07:46:17;3.70;99.90
2639;DHT22;1329;51.384;7.122;2023-04-03T07:48:44;3.70;99.90
2639;DHT22;1329;51.384;7.122;2023-04-03T07:51:11;3.70;99.90
2639;DHT22;1329;51.384;7.122;2023-04-03T07:53:39;3.80;99.90
2639;DHT22;1329;51.384;7.122;2023-04-03T07:56:07;3.80;99.90
2639;DHT22;1329;51.384;7.122;2023-04-03T07:58:36;3.90;99.90
2639;DHT22;1329;51.384;7.122;2023-04-03T08:01:04;3.90;99.90
2639;DHT22;1329;51.384;7.122;2023-04-03T08:03:31;4.00;99.90
2639;DHT22;1329;51.384;7.122;2023-04-03T08:06:02;4.00;99.90
2639;DHT22;1329;51.384;7.122;2023-04-03T08:08:31;4.00;99.90
2639;DHT22;1329;51.384;7.122;2023-04-03T08:11:00;4.10;99.90
2639;DHT22;1329;51.384;7.122;2023-04-03T08:13:29;4.10;99.90
2639;DHT22;1329;51.384;7.122;2023-04-03T08:15:58;4.10;99.90
2639;DHT22;1329;51.384;7.122;2023-04-03T08:18:34;4.20;99.90
2639;DHT22;1329;51.384;7.122;2023-04-03T08:21:05;4.20;99.90
2639;DHT22;1329;51.384;7.122;2023-04-03T08:23:33;4.20;99.90
2639;DHT22;1329;51.384;7.122;2023-04-03T08:26:06;4.30;99.90
2639;DHT22;1329;51.384;7.122;2023-04-03T08:28:35;4.50;99.90
2639;DHT22;1329;51.384;7.122;2023-04-03T08:31:06;4.70;99.90
2639;DHT22;1329;51.384;7.122;2023-04-03T08:33:37;5.00;99.90
2639;DHT22;1329;51.384;7.122;2023-04-03T08:36:07;5.40;99.90
2639;DHT22;1329;51.384;7.122;2023-04-03T08:38:41;5.70;99.90
2639;DHT22;1329;51.384;7.122;2023-04-03T08:41:15;6.10;99.90
2639;DHT22;1329;51.384;7.122;2023-04-03T08:43:58;6.40;99.90
2639;DHT22;1329;51.384;7.122;2023-04-03T08:46:44;6.70;99.90
2639;DHT22;1329;51.384;7.122;2023-04-03T08:49:21;6.80;99.90
2639;DHT22;1329;51.384;7.122;2023-04-03T08:51:52;6.90;99.90
2639;DHT22;1329;51.384;7.122;2023-04-03T08:54:28;6.90;99.90
2639;DHT22;1329;51.384;7.122;2023-04-03T08:56:58;6.80;99.90
2639;DHT22;1329;51.384;7.122;2023-04-03T08:59:32;6.70;99.90
2639;DHT22;1329;51.384;7.122;2023-04-03T09:02:12;6.60;99.90
2639;DHT22;1329;51.384;7.122;2023-04-03T09:04:50;6.60;99.90
2639;DHT22;1329;51.384;7.122;2023-04-03T09:07:44;6.50;99.90
2639;DHT22;1329;51.384;7.122;2023-04-03T09:10:15;6.40;99.90
2639;DHT22;1329;51.384;7.122;2023-04-03T09:12:55;6.40;99.90
2639;DHT22;1329;51.384;7.122;2023-04-03T09:15:30;6.30;99.90
2639;DHT22;1329;51.384;7.122;2023-04-03T09:18:05;6.30;99.90
2639;DHT22;1329;51.384;7.122;2023-04-03T09:20:57;6.30;99.90
2639;DHT22;1329;51.384;7.122;2023-04-03T09:23:32;6.20;99.90
2639;DHT22;1329;51.384;7.122;2023-04-03T09:26:03;6.20;99.90
2639;DHT22;1329;51.384;7.122;2023-04-03T09:28:37;6.20;99.90
2639;DHT22;1329;51.384;7.122;2023-04-03T09:31:16;6.20;99.90
2639;DHT22;1329;51.384;7.122;2023-04-03T09:33:50;6.20;99.90
2639;DHT22;1329;51.384;7.122;2023-04-03T09:36:40;6.20;99.90
2639;DHT22;1329;51.384;7.122;2023-04-03T09:39:14;6.20;99.90
2639;DHT22;1329;51.384;7.122;2023-04-03T09:41:57;6.30;99.90
2639;DHT22;1329;51.384;7.122;2023-04-03T09:44:39;6.30;99.90
2639;DHT22;1329;51.384;7.122;2023-04-03T09:47:23;6.30;99.90
2639;DHT22;1329;51.384;7.122;2023-04-03T09:50:13;6.30;99.90
2639;DHT22;1329;51.384;7.122;2023-04-03T09:52:47;6.40;99.90
2639;DHT22;1329;51.384;7.122;2023-04-03T09:55:18;6.50;99.90
2639;DHT22;1329;51.384;7.122;2023-04-03T09:57:47;6.50;99.90
2639;DHT22;1329;51.384;7.122;2023-04-03T10:00:22;6.60;99.90
2639;DHT22;1329;51.384;7.122;2023-04-03T10:03:02;6.70;99.90
2639;DHT22;1329;51.384;7.122;2023-04-03T10:05:35;6.70;99.90
2639;DHT22;1329;51.384;7.122;2023-04-03T10:08:20;6.80;99.90
2639;DHT22;1329;51.384;7.122;2023-04-03T10:11:12;6.90;99.90
2639;DHT22;1329;51.384;7.122;2023-04-03T10:13:53;7.00;99.90
2639;DHT22;1329;51.384;7.122;2023-04-03T10:16:26;7.10;99.90
2639;DHT22;1329;51.384;7.122;2023-04-03T10:19:29;7.10;99.90
2639;DHT22;1329;51.384;7.122;2023-04-03T10:22:10;7.20;99.90
2639;DHT22;1329;51.384;7.122;2023-04-03T10:24:51;7.30;99.90
2639;DHT22;1329;51.384;7.122;2023-04-03T10:27:29;7.40;99.90
2639;DHT22;1329;51.384;7.122;2023-04-03T10:30:17;7.50;99.90
2639;DHT22;1329;51.384;7.122;2023-04-03T10:32:58;7.50;99.90
2639;DHT22;1329;51.384;7.122;2023-04-03T10:35:42;7.60;99.90
2639;DHT22;1329;51.384;7.122;2023-04-03T10:38:18;7.60;99.90
2639;DHT22;1329;51.384;7.122;2023-04-03T10:40:52;7.60;99.90
2639;DHT22;1329;51.384;7.122;2023-04-03T10:43:33;7.70;99.90
2639;DHT22;1329;51.384;7.122;2023-04-03T10:46:06;7.70;99.90
2639;DHT22;1329;51.384;7.122;2023-04-03T10:48:47;7.70;99.90
2639;DHT22;1329;51.384;7.122;2023-04-03T10:51:25;7.80;99.90
2639;DHT22;1329;51.384;7.122;2023-04-03T10:54:07;7.80;99.90
2639;DHT22;1329;51.384;7.122;2023-04-03T10:56:41;7.90;99.90
2639;DHT22;1329;51.384;7.122;2023-04-03T10:59:21;7.90;99.90
2639;DHT22;1329;51.384;7.122;2023-04-03T11:01:53;7.90;99.90
2639;DHT22;1329;51.384;7.122;2023-04-03T11:04:26;8.00;99.90
2639;DHT22;1329;51.384;7.122;2023-04-03T11:07:00;8.00;99.90
2639;DHT22;1329;51.384;7.122;2023-04-03T11:09:33;8.00;99.90
2639;DHT22;1329;51.384;7.122;2023-04-03T11:12:05;8.10;99.90
2639;DHT22;1329;51.384;7.122;2023-04-03T11:14:38;8.10;99.90
2639;DHT22;1329;51.384;7.122;2023-04-03T11:17:15;8.10;99.90
2639;DHT22;1329;51.384;7.122;2023-04-03T11:19:51;8.20;99.90
2639;DHT22;1329;51.384;7.122;2023-04-03T11:22:25;8.20;99.90
2639;DHT22;1329;51.384;7.122;2023-04-03T11:24:59;8.20;99.90
2639;DHT22;1329;51.384;7.122;2023-04-03T11:27:35;8.30;99.90
2639;DHT22;1329;51.384;7.122;2023-04-03T11:30:13;8.20;99.90
2639;DHT22;1329;51.384;7.122;2023-04-03T11:33:03;8.30;99.90
2639;DHT22;1329;51.384;7.122;2023-04-03T11:35:35;8.40;99.90
2639;DHT22;1329;51.384;7.122;2023-04-03T11:38:05;8.40;99.90
2639;DHT22;1329;51.384;7.122;2023-04-03T11:40:35;8.40;99.90
2639;DHT22;1329;51.384;7.122;2023-04-03T11:43:06;8.40;99.90
2639;DHT22;1329;51.384;7.122;2023-04-03T11:45:36;8.50;99.90
2639;DHT22;1329;51.384;7.122;2023-04-03T11:48:42;8.50;99.90
2639;DHT22;1329;51.384;7.122;2023-04-03T11:51:40;8.50;99.90
2639;DHT22;1329;51.384;7.122;2023-04-03T11:54:34;8.60;99.90
2639;DHT22;1329;51.384;7.122;2023-04-03T11:57:50;8.60;99.90
2639;DHT22;1329;51.384;7.122;2023-04-03T12:01:04;8.60;99.90
2639;DHT22;1329;51.384;7.122;2023-04-03T12:07:01;8.70;99.90
2639;DHT22;1329;51.384;7.122;2023-04-03T12:10:02;8.70;99.90
2639;DHT22;1329;51.384;7.122;2023-04-03T12:12:57;8.80;99.90
2639;DHT22;1329;51.384;7.122;2023-04-03T12:15:49;8.80;99.90
2639;DHT22;1329;51.384;7.122;2023-04-03T12:18:40;8.90;99.90
2639;DHT22;1329;51.384;7.122;2023-04-03T12:24:38;8.90;99.90
2639;DHT22;1329;51.384;7.122;2023-04-03T12:27:22;9.00;99.90
2639;DHT22;1329;51.384;7.122;2023-04-03T12:30:03;9.00;99.90
2639;DHT22;1329;51.384;7.122;2023-04-03T12:35:56;9.10;99.90
2639;DHT22;1329;51.384;7.122;2023-04-03T12:38:58;9.20;99.90
2639;DHT22;1329;51.384;7.122;2023-04-03T12:41:37;9.20;99.90
2639;DHT22;1329;51.384;7.122;2023-04-03T12:44:24;9.30;99.90
2639;DHT22;1329;51.384;7.122;2023-04-03T12:47:02;9.30;99.90
2639;DHT22;1329;51.384;7.122;2023-04-03T12:49:44;9.30;99.90
2639;DHT22;1329;51.384;7.122;2023-04-03T12:52:20;9.30;99.90
2639;DHT22;1329;51.384;7.122;2023-04-03T12:54:58;9.40;99.90
2639;DHT22;1329;51.384;7.122;2023-04-03T12:57:27;9.40;99.90
2639;DHT22;1329;51.384;7.122;2023-04-03T12:59:55;9.40;99.90
2639;DHT22;1329;51.384;7.122;2023-04-03T13:02:26;9.50;99.90
2639;DHT22;1329;51.384;7.122;2023-04-03T13:04:56;9.50;99.90
2639;DHT22;1329;51.384;7.122;2023-04-03T13:07:27;9.60;99.90
2639;DHT22;1329;51.384;7.122;2023-04-03T13:10:12;9.60;99.90
2639;DHT22;1329;51.384;7.122;2023-04-03T13:12:52;9.60;99.90
2639;DHT22;1329;51.384;7.122;2023-04-03T13:15:25;9.70;99.90
2639;DHT22;1329;51.384;7.122;2023-04-03T13:18:01;9.80;99.90
2639;DHT22;1329;51.384;7.122;2023-04-03T13:20:31;9.90;99.90
2639;DHT22;1329;51.384;7.122;2023-04-03T13:23:04;9.90;99.90
2639;DHT22;1329;51.384;7.122;2023-04-03T13:25:36;10.00;99.90
2639;DHT22;1329;51.384;7.122;2023-04-03T13:28:10;10.00;99.90
2639;DHT22;1329;51.384;7.122;2023-04-03T13:30:40;10.10;99.90
2639;DHT22;1329;51.384;7.122;2023-04-03T13:33:21;10.10;99.90
2639;DHT22;1329;51.384;7.122;2023-04-03T13:35:56;10.20;99.90
2639;DHT22;1329;51.384;7.122;2023-04-03T13:38:25;10.20;99.90
2639;DHT22;1329;51.384;7.122;2023-04-03T13:41:00;10.30;99.90
2639;DHT22;1329;51.384;7.122;2023-04-03T13:43:31;10.30;99.90
2639;DHT22;1329;51.384;7.122;2023-04-03T13:46:20;10.40;99.90
2639;DHT22;1329;51.384;7.122;2023-04-03T13:48:52;10.40;99.90
2639;DHT22;1329;51.384;7.122;2023-04-03T13:51:27;10.50;99.90
2639;DHT22;1329;51.384;7.122;2023-04-03T13:53:57;10.60;99.90
2639;DHT22;1329;51.384;7.122;2023-04-03T13:56:31;10.60;99.90
2639;DHT22;1329;51.384;7.122;2023-04-03T13:59:18;10.70;99.90
2639;DHT22;1329;51.384;7.122;2023-04-03T14:01:52;10.70;99.90
2639;DHT22;1329;51.384;7.122;2023-04-03T14:04:24;10.70;99.90
2639;DHT22;1329;51.384;7.122;2023-04-03T14:06:57;10.70;99.90
2639;DHT22;1329;51.384;7.122;2023-04-03T14:09:26;10.80;99.90
2639;DHT22;1329;51.384;7.122;2023-04-03T14:11:56;10.80;99.90
2639;DHT22;1329;51.384;7.122;2023-04-03T14:14:30;10.80;99.90
2639;DHT22;1329;51.384;7.122;2023-04-03T14:17:01;10.80;99.90
2639;DHT22;1329;51.384;7.122;2023-04-03T14:19:33;10.90;99.90
2639;DHT22;1329;51.384;7.122;2023-04-03T14:22:11;10.90;99.90
2639;DHT22;1329;51.384;7.122;2023-04-03T14:24:41;10.90;99.90
2639;DHT22;1329;51.384;7.122;2023-04-03T14:27:15;11.00;99.90
2639;DHT22;1329;51.384;7.122;2023-04-03T14:29:45;11.00;99.90
2639;DHT22;1329;51.384;7.122;2023-04-03T14:32:15;11.00;99.90
2639;DHT22;1329;51.384;7.122;2023-04-03T14:34:45;11.10;99.90
2639;DHT22;1329;51.384;7.122;2023-04-03T14:37:15;11.10;99.90
2639;DHT22;1329;51.384;7.122;2023-04-03T14:39:45;11.20;99.90
2639;DHT22;1329;51.384;7.122;2023-04-03T14:42:15;11.20;99.90
2639;DHT22;1329;51.384;7.122;2023-04-03T14:44:45;11.20;99.90
2639;DHT22;1329;51.384;7.122;2023-04-03T14:47:15;11.20;99.90
2639;DHT22;1329;51.384;7.122;2023-04-03T14:49:49;11.20;99.90
2639;DHT22;1329;51.384;7.122;2023-04-03T14:52:19;11.20;99.90
2639;DHT22;1329;51.384;7.122;2023-04-03T14:54:49;11.20;99.90
2639;DHT22;1329;51.384;7.122;2023-04-03T14:57:23;11.10;99.90
2639;DHT22;1329;51.384;7.122;2023-04-03T14:59:54;11.20;99.90
2639;DHT22;1329;51.384;7.122;2023-04-03T15:02:33;11.10;99.90
2639;DHT22;1329;51.384;7.122;2023-04-03T15:05:04;11.10;99.90
2639;DHT22;1329;51.384;7.122;2023-04-03T15:07:34;11.10;99.90
2639;DHT22;1329;51.384;7.122;2023-04-03T15:10:14;11.10;99.90
2639;DHT22;1329;51.384;7.122;2023-04-03T15:12:45;11.10;99.90
2639;DHT22;1329;51.384;7.122;2023-04-03T15:15:14;11.20;99.90
2639;DHT22;1329;51.384;7.122;2023-04-03T15:17:46;11.10;99.90
2639;DHT22;1329;51.384;7.122;2023-04-03T15:20:19;11.20;99.90
2639;DHT22;1329;51.384;7.122;2023-04-03T15:22:47;11.20;99.90
2639;DHT22;1329;51.384;7.122;2023-04-03T15:25:15;11.20;99.90
2639;DHT22;1329;51.384;7.122;2023-04-03T15:27:43;11.20;99.90
2639;DHT22;1329;51.384;7.122;2023-04-03T15:30:15;11.20;99.90
2639;DHT22;1329;51.384;7.122;2023-04-03T15:32:44;11.20;99.90
2639;DHT22;1329;51.384;7.122;2023-04-03T15:35:11;11.20;99.90
2639;DHT22;1329;51.384;7.122;2023-04-03T15:37:40;11.20;99.90
2639;DHT22;1329;51.384;7.122;2023-04-03T15:40:11;11.20;99.90
2639;DHT22;1329;51.384;7.122;2023-04-03T15:42:41;11.20;99.90
2639;DHT22;1329;51.384;7.122;2023-04-03T15:45:09;11.20;99.90
2639;DHT22;1329;51.384;7.122;2023-04-03T15:47:36;11.20;99.90
2639;DHT22;1329;51.384;7.122;2023-04-03T15:50:05;11.20;99.90
2639;DHT22;1329;51.384;7.122;2023-04-03T15:52:33;11.20;99.90
2639;DHT22;1329;51.384;7.122;2023-04-03T15:55:06;11.20;99.90
2639;DHT22;1329;51.384;7.122;2023-04-03T15:57:34;11.20;99.90
2639;DHT22;1329;51.384;7.122;2023-04-03T16:00:02;11.20;99.90
2639;DHT22;1329;51.384;7.122;2023-04-03T16:02:30;11.20;99.90
2639;DHT22;1329;51.384;7.122;2023-04-03T16:04:59;11.10;99.90
2639;DHT22;1329;51.384;7.122;2023-04-03T16:07:26;11.10;99.90
2639;DHT22;1329;51.384;7.122;2023-04-03T16:09:53;11.10;99.90
2639;DHT22;1329;51.384;7.122;2023-04-03T16:12:22;11.10;99.90
2639;DHT22;1329;51.384;7.122;2023-04-03T16:14:50;11.10;99.90
2639;DHT22;1329;51.384;7.122;2023-04-03T16:17:18;11.10;99.90
2639;DHT22;1329;51.384;7.122;2023-04-03T16:19:46;11.10;99.90
2639;DHT22;1329;51.384;7.122;2023-04-03T16:22:14;11.10;99.90
2639;DHT22;1329;51.384;7.122;2023-04-03T16:24:42;11.10;99.90
2639;DHT22;1329;51.384;7.122;2023-04-03T16:27:09;11.00;99.90
2639;DHT22;1329;51.384;7.122;2023-04-03T16:29:38;11.00;99.90
2639;DHT22;1329;51.384;7.122;2023-04-03T16:32:05;11.00;99.90
2639;DHT22;1329;51.384;7.122;2023-04-03T16:34:32;11.00;99.90
2639;DHT22;1329;51.384;7.122;2023-04-03T16:36:59;10.90;99.90
2639;DHT22;1329;51.384;7.122;2023-04-03T16:39:27;10.90;99.90
2639;DHT22;1329;51.384;7.122;2023-04-03T16:41:54;10.90;99.90
2639;DHT22;1329;51.384;7.122;2023-04-03T16:44:21;10.90;99.90
2639;DHT22;1329;51.384;7.122;2023-04-03T16:46:50;10.80;99.90
2639;DHT22;1329;51.384;7.122;2023-04-03T16:49:17;10.80;99.90
2639;DHT22;1329;51.384;7.122;2023-04-03T16:51:44;10.80;99.90
2639;DHT22;1329;51.384;7.122;2023-04-03T16:54:12;10.80;99.90
2639;DHT22;1329;51.384;7.122;2023-04-03T16:56:40;10.70;99.90
2639;DHT22;1329;51.384;7.122;2023-04-03T16:59:07;10.70;99.90